Time;durP1;ratioP1;P1;durP2;ratioP2;P2;SDS_P1;SDS_P2;PMS_P1;PMS_P2;Temp;Humidity;BMP_temperature;BMP_pressure;BME280_temperature;BME280_humidity;BME280_pressure;Samples;Min_cycle;Max_cycle;Signal;HPM_P1;HPM_P2
2021/10/05 00:00:26;;;;;;;2.20;1.58;;;;;;;12.66;75.61;98754.22;2622349;54;20022;-67
2021/10/05 00:02:56;;;;;;;4.13;1.70;;;;;;;12.71;75.84;98747.25;2622312;54;20522;-67
2021/10/05 00:05:27;;;;;;;1.83;1.30;;;;;;;12.66;75.43;98744.44;2622699;54;20033;-67
2021/10/05 00:07:57;;;;;;;5.18;1.50;;;;;;;12.57;76.05;98741.19;2623147;54;20041;-67
2021/10/05 00:10:29;;;;;;;1.60;1.35;;;;;;;12.53;76.30;98739.13;2622967;39;20433;-68
2021/10/05 00:12:59;;;;;;;2.10;1.80;;;;;;;12.48;76.44;98734.44;2623267;54;20034;-67
2021/10/05 00:15:29;;;;;;;3.08;1.50;;;;;;;12.48;76.43;98734.44;2624784;54;20068;-68
2021/10/05 00:17:58;;;;;;;2.75;1.55;;;;;;;12.49;76.41;98733.44;2621934;54;20549;-67
2021/10/05 00:20:28;;;;;;;2.90;1.70;;;;;;;12.48;76.59;98723.84;2620672;54;20030;-66
2021/10/05 00:22:58;;;;;;;2.05;1.80;;;;;;;12.53;76.58;98731.16;2624981;54;20030;-66
2021/10/05 00:25:31;;;;;;;1.67;1.58;;;;;;;12.56;76.68;98726.28;2624695;47;20563;-67
2021/10/05 00:28:01;;;;;;;1.90;1.60;;;;;;;12.64;76.97;98726.03;2623886;54;20018;-66
2021/10/05 00:30:30;;;;;;;1.50;1.40;;;;;;;12.69;76.37;98724.59;2625052;39;20425;-66
2021/10/05 00:33:00;;;;;;;1.35;1.25;;;;;;;12.70;76.24;98727.06;2624941;54;20044;-66
2021/10/05 00:35:30;;;;;;;1.65;1.55;;;;;;;12.65;76.17;98724.22;2624491;39;20423;-66
2021/10/05 00:38:00;;;;;;;2.20;1.63;;;;;;;12.56;76.63;98726.28;2625199;54;20027;-67
2021/10/05 00:40:32;;;;;;;1.90;1.42;;;;;;;12.63;76.90;98718.31;2624508;54;20055;-66
2021/10/05 00:43:02;;;;;;;3.60;1.60;;;;;;;12.71;76.62;98725.22;2625931;39;20411;-69
2021/10/05 00:45:32;;;;;;;2.55;1.60;;;;;;;12.71;76.37;98725.22;2624691;54;20019;-67
2021/10/05 00:48:01;;;;;;;1.90;1.67;;;;;;;12.68;76.72;98723.00;2624384;54;20045;-67
2021/10/05 00:50:31;;;;;;;4.00;2.03;;;;;;;12.61;76.87;98737.09;2620421;54;20521;-64
2021/10/05 00:53:01;;;;;;;2.10;1.90;;;;;;;12.58;76.86;98732.19;2618169;47;20074;-64
2021/10/05 00:55:33;;;;;;;2.33;2.13;;;;;;;12.64;76.87;98728.69;2618820;54;20049;-64
2021/10/05 00:58:02;;;;;;;3.67;1.90;;;;;;;12.70;77.23;98724.41;2618374;47;20045;-64
2021/10/05 01:00:32;;;;;;;2.67;1.70;;;;;;;12.66;76.94;98709.94;2618164;47;20034;-64
2021/10/05 01:03:02;;;;;;;1.60;1.50;;;;;;;12.64;76.91;98706.69;2618896;54;20564;-64
2021/10/05 01:05:32;;;;;;;1.70;1.60;;;;;;;12.67;77.04;98710.75;2618775;54;20018;-64
2021/10/05 01:08:02;;;;;;;3.08;1.75;;;;;;;12.66;76.68;98699.34;2619019;54;20034;-64
2021/10/05 01:10:34;;;;;;;1.83;1.65;;;;;;;12.62;76.58;98690.97;2619138;54;20019;-64
2021/10/05 01:13:04;;;;;;;3.10;1.92;;;;;;;12.56;76.93;98691.00;2618890;54;20030;-64
2021/10/05 01:15:34;;;;;;;3.33;2.15;;;;;;;12.51;77.46;98682.84;2618662;54;20023;-64
2021/10/05 01:18:03;;;;;;;3.15;2.47;;;;;;;12.51;77.13;98678.34;2618896;54;20041;-64
2021/10/05 01:20:47;;;;;;;2.08;1.88;;;;;;;12.47;77.98;98673.69;2618025;54;20042;-64
2021/10/05 01:23:19;;;;;;;2.85;2.00;;;;;;;12.49;78.22;98669.81;2618938;39;20705;-64
2021/10/05 01:25:49;;;;;;;3.05;2.25;;;;;;;12.52;77.66;98668.56;2618586;54;20056;-64
2021/10/05 01:28:20;;;;;;;2.58;2.00;;;;;;;12.51;78.49;98669.59;2618661;54;20036;-65
2021/10/05 01:30:50;;;;;;;3.38;1.92;;;;;;;12.56;78.54;98659.16;2618699;54;20038;-64
2021/10/05 01:33:23;;;;;;;2.85;1.88;;;;;;;12.66;78.06;98656.91;2618637;54;20038;-64
2021/10/05 01:35:53;;;;;;;9.00;4.10;;;;;;;12.74;78.03;98647.91;2617667;46;20065;-64
2021/10/05 01:38:26;;;;;;;3.38;1.95;;;;;;;12.76;77.43;98649.31;2618775;54;20018;-64
2021/10/05 01:40:56;;;;;;;3.20;2.17;;;;;;;12.79;77.82;98648.09;2618419;54;20546;-64
2021/10/05 01:43:25;;;;;;;2.33;1.85;;;;;;;12.81;77.97;98644.19;2618668;54;20035;-64
2021/10/05 01:45:55;;;;;;;2.50;2.00;;;;;;;12.82;77.54;98634.41;2618647;54;20103;-64
2021/10/05 01:48:25;;;;;;;3.70;2.15;;;;;;;12.78;77.40;98628.69;2618445;54;20031;-65
2021/10/05 01:50:54;;;;;;;2.40;1.88;;;;;;;12.72;77.31;98632.19;2618400;54;20030;-65
2021/10/05 01:53:26;;;;;;;2.75;2.20;;;;;;;12.64;77.69;98633.22;2618495;54;20034;-65
2021/10/05 01:55:56;;;;;;;4.55;2.35;;;;;;;12.54;78.02;98624.09;2617727;46;20042;-65
2021/10/05 01:58:26;;;;;;;2.22;2.03;;;;;;;12.61;78.37;98627.53;2618537;54;20035;-65
2021/10/05 02:00:56;;;;;;;7.90;2.70;;;;;;;12.65;77.81;98612.81;2617725;51;20078;-65
2021/10/05 02:03:25;;;;;;;1.92;1.70;;;;;;;12.62;78.08;98610.63;2618558;54;20030;-65
2021/10/05 02:05:55;;;;;;;3.53;2.35;;;;;;;12.62;77.44;98605.31;2617679;47;20034;-65
2021/10/05 02:08:27;;;;;;;2.40;2.20;;;;;;;12.59;78.24;98613.69;2618520;54;20069;-65
2021/10/05 02:10:57;;;;;;;2.78;2.00;;;;;;;12.55;77.88;98610.63;2618521;54;20077;-65
2021/10/05 02:13:27;;;;;;;5.38;2.92;;;;;;;12.56;77.83;98611.44;2618663;54;20034;-65
2021/10/05 02:15:56;;;;;;;3.05;2.75;;;;;;;12.55;77.78;98601.88;2618890;54;20046;-65
2021/10/05 02:18:26;;;;;;;5.45;2.80;;;;;;;12.51;78.14;98598.00;2618478;54;20022;-65
2021/10/05 02:20:57;;;;;;;3.38;2.60;;;;;;;12.46;78.19;98593.34;2617734;54;20034;-65
2021/10/05 02:26:11;;;;;;;3.20;2.50;;;;;;;12.34;78.38;98587.88;2618281;54;20041;-65
2021/10/05 02:28:40;;;;;;;3.50;2.88;;;;;;;12.29;78.71;98587.69;2618562;54;20118;-65
2021/10/05 02:31:10;;;;;;;4.63;2.60;;;;;;;12.33;78.63;98583.59;2617895;47;20038;-67
2021/10/05 02:33:39;;;;;;;5.90;2.60;;;;;;;12.30;78.86;98569.94;2618468;54;20041;-65
2021/10/05 02:36:09;;;;;;;2.60;2.40;;;;;;;12.36;78.61;98566.44;2617870;47;20061;-65
2021/10/05 02:38:41;;;;;;;4.93;2.90;;;;;;;12.44;78.83;98568.84;2620041;54;20026;-69
2021/10/05 02:41:11;;;;;;;4.05;2.95;;;;;;;12.52;78.40;98568.63;2624215;54;20039;-65
2021/10/05 02:43:41;;;;;;;3.38;2.60;;;;;;;12.59;78.40;98573.91;2620385;54;20030;-65
2021/10/05 02:46:10;;;;;;;3.45;2.88;;;;;;;12.56;77.87;98559.22;2618435;54;20023;-65
2021/10/05 02:48:40;;;;;;;3.78;2.80;;;;;;;12.48;78.18;98559.47;2618135;54;20042;-65
2021/10/05 02:51:10;;;;;;;2.65;2.45;;;;;;;12.44;77.78;98558.25;2618222;54;20026;-66
2021/10/05 02:53:45;;;;;;;3.63;2.78;;;;;;;12.39;78.07;98566.84;2618173;54;20023;-66
2021/10/05 02:56:15;;;;;;;3.28;2.88;;;;;;;12.36;78.25;98575.19;2618358;54;20023;-66
2021/10/05 02:58:45;;;;;;;4.22;3.47;;;;;;;12.27;78.37;98565.88;2618134;54;20031;-66
2021/10/05 03:01:14;;;;;;;3.33;3.08;;;;;;;12.22;78.62;98560.38;2618256;54;20034;-66
2021/10/05 03:03:44;;;;;;;3.88;3.05;;;;;;;12.31;78.25;98558.31;2618161;54;20041;-66
2021/10/05 03:06:14;;;;;;;3.40;2.92;;;;;;;12.36;78.17;98555.84;2618217;54;20026;-66
2021/10/05 03:08:46;;;;;;;3.65;3.28;;;;;;;12.38;78.19;98554.63;2618283;54;20545;-66
2021/10/05 03:11:16;;;;;;;4.65;3.53;;;;;;;12.37;78.42;98554.84;2618356;54;20034;-66
2021/10/05 03:13:45;;;;;;;3.67;3.35;;;;;;;12.33;78.57;98550.97;2618199;54;20031;-65
2021/10/05 03:16:15;;;;;;;3.72;3.40;;;;;;;12.34;78.68;98544.66;2617708;46;20026;-66
2021/10/05 03:18:46;;;;;;;2.90;2.70;;;;;;;12.36;78.97;98540.75;2618132;54;20038;-65
2021/10/05 03:21:16;;;;;;;3.92;3.45;;;;;;;12.45;78.54;98551.09;2618094;54;20034;-65
2021/10/05 03:23:49;;;;;;;3.50;3.20;;;;;;;12.49;78.86;98552.31;2618027;54;20046;-65
2021/10/05 03:26:19;;;;;;;3.28;3.00;;;;;;;12.51;78.63;98553.75;2618479;54;20045;-65
2021/10/05 03:28:48;;;;;;;3.90;3.50;;;;;;;12.50;78.36;98549.47;2618259;54;20030;-66
2021/10/05 03:31:18;;;;;;;5.82;4.15;;;;;;;12.47;78.28;98555.19;2618079;54;20038;-66
2021/10/05 03:33:48;;;;;;;5.57;4.15;;;;;;;12.46;78.67;98550.91;2617929;54;20621;-66
2021/10/05 03:36:18;;;;;;;3.75;3.45;;;;;;;12.40;78.16;98557.84;2618126;54;20038;-66
2021/10/05 03:38:50;;;;;;;3.47;3.17;;;;;;;12.40;78.83;98546.44;2618217;54;20027;-64
2021/10/05 03:41:20;;;;;;;3.35;3.00;;;;;;;12.39;78.47;98550.94;2617935;54;20542;-66
2021/10/05 03:43:50;;;;;;;4.18;3.35;;;;;;;12.38;78.62;98543.19;2618300;54;20026;-64
2021/10/05 03:46:19;;;;;;;4.43;3.60;;;;;;;12.39;78.96;98542.97;2618299;54;20078;-64
2021/10/05 03:48:49;;;;;;;3.70;3.40;;;;;;;12.41;79.00;98532.19;2618179;54;20061;-64
2021/10/05 03:51:19;;;;;;;4.60;3.65;;;;;;;12.35;79.07;98528.53;2618206;54;20633;-65
2021/10/05 03:53:51;;;;;;;6.20;4.35;;;;;;;12.34;78.32;98524.25;2618057;54;20027;-65
2021/10/05 03:56:20;;;;;;;4.93;4.25;;;;;;;12.20;78.43;98513.91;2619014;31;20548;-65
2021/10/05 03:58:50;;;;;;;4.63;4.15;;;;;;;12.09;79.12;98496.84;2618154;54;20041;-65
2021/10/05 04:01:20;;;;;;;4.18;3.88;;;;;;;12.05;79.67;98499.09;2618284;54;20577;-65
2021/10/05 04:03:50;;;;;;;4.32;3.90;;;;;;;11.97;80.08;98499.31;2618045;54;20597;-65
2021/10/05 04:06:19;;;;;;;5.55;4.28;;;;;;;12.04;80.50;98505.41;2618199;54;20030;-65
2021/10/05 04:08:51;;;;;;;4.75;4.35;;;;;;;12.10;80.04;98503.75;2618110;54;20061;-65
2021/10/05 04:11:21;;;;;;;4.50;4.15;;;;;;;12.09;79.90;98510.09;2618084;54;20045;-65
2021/10/05 04:13:51;;;;;;;4.78;4.25;;;;;;;12.10;80.09;98511.72;2618869;39;20450;-65
2021/10/05 04:16:20;;;;;;;6.70;6.10;;;;;;;12.09;80.31;98497.66;2618030;54;20038;-65
2021/10/05 04:18:50;;;;;;;7.60;6.20;;;;;;;12.08;80.56;98496.03;2617927;54;20030;-65
2021/10/05 04:21:19;;;;;;;8.88;7.53;;;;;;;12.15;80.64;98498.63;2617970;54;20034;-65
2021/10/05 04:23:52;;;;;;;12.82;7.25;;;;;;;12.25;80.53;98483.13;2617970;54;20034;-65
2021/10/05 04:26:21;;;;;;;8.32;7.35;;;;;;;12.32;80.35;98489.19;2618174;54;20030;-65
2021/10/05 04:28:51;;;;;;;9.35;8.43;;;;;;;12.29;80.22;98486.97;2617827;39;20429;-65
2021/10/05 04:31:20;;;;;;;12.38;8.40;;;;;;;12.29;80.21;98476.38;2618033;54;20038;-65
2021/10/05 04:33:50;;;;;;;10.02;9.10;;;;;;;12.23;79.47;98482.50;2617667;54;20122;-64
2021/10/05 04:36:20;;;;;;;9.32;8.43;;;;;;;12.14;79.94;98471.31;2618011;54;20049;-64
2021/10/05 04:38:52;;;;;;;11.55;10.00;;;;;;;12.17;80.12;98474.59;2618044;54;20038;-64
2021/10/05 04:41:22;;;;;;;13.57;10.93;;;;;;;12.16;80.43;98479.06;2617977;54;20046;-64
2021/10/05 04:43:51;;;;;;;12.65;11.35;;;;;;;12.13;80.03;98476.84;2619565;54;20039;-65
2021/10/05 04:46:21;;;;;;;11.45;10.02;;;;;;;12.09;80.58;98480.94;2619847;54;20041;-65
2021/10/05 04:48:50;;;;;;;11.60;10.40;;;;;;;12.17;81.04;98474.59;2619994;54;20040;-65
2021/10/05 04:51:20;;;;;;;11.98;9.85;;;;;;;12.25;81.07;98480.47;2619524;54;20026;-65
2021/10/05 04:53:52;;;;;;;10.32;8.50;;;;;;;12.30;80.70;98466.56;2618942;54;20149;-65
2021/10/05 04:56:22;;;;;;;9.75;8.75;;;;;;;12.32;80.29;98467.97;2617445;54;20027;-65
2021/10/05 04:58:51;;;;;;;10.30;9.02;;;;;;;12.36;80.37;98461.22;2618360;39;20399;-65
2021/10/05 05:01:21;;;;;;;9.52;7.93;;;;;;;12.43;80.19;98460.38;2618447;54;20034;-65
2021/10/05 05:03:51;;;;;;;10.07;8.20;;;;;;;12.49;80.10;98463.00;2618663;54;20026;-65
2021/10/05 05:06:20;;;;;;;9.32;7.80;;;;;;;12.53;79.77;98458.06;2618685;54;20563;-65
2021/10/05 05:08:52;;;;;;;8.90;8.00;;;;;;;12.50;79.69;98455.88;2620278;54;20038;-65
2021/10/05 05:11:22;;;;;;;9.23;8.27;;;;;;;12.46;79.83;98452.03;2619183;54;20035;-65
2021/10/05 05:13:52;;;;;;;8.85;7.95;;;;;;;12.46;79.43;98449.38;2619449;54;20562;-65
2021/10/05 05:16:21;;;;;;;11.25;8.00;;;;;;;12.37;79.47;98439.00;2618954;54;20038;-65
2021/10/05 05:18:51;;;;;;;9.85;7.82;;;;;;;12.35;79.95;98449.00;2618727;54;20164;-65
2021/10/05 05:21:20;;;;;;;9.25;8.35;;;;;;;12.38;79.83;98453.06;2619091;54;20036;-65
2021/10/05 05:23:53;;;;;;;10.13;8.32;;;;;;;12.34;79.86;98443.91;2618031;47;20030;-65
2021/10/05 05:26:22;;;;;;;10.75;8.68;;;;;;;12.26;79.71;98438.88;2618655;54;20041;-65
2021/10/05 05:28:52;;;;;;;8.88;7.85;;;;;;;12.19;80.05;98446.03;2618229;47;20039;-65
2021/10/05 05:31:22;;;;;;;8.30;7.50;;;;;;;12.21;80.58;98442.16;2620220;54;20103;-65
2021/10/05 05:33:51;;;;;;;9.23;8.32;;;;;;;12.21;80.00;98444.81;2623657;54;20050;-65
2021/10/05 05:36:21;;;;;;;9.13;8.23;;;;;;;12.26;80.42;98444.16;2620988;46;20049;-64
2021/10/05 05:38:53;;;;;;;10.88;8.43;;;;;;;12.38;80.57;98445.94;2618800;54;20042;-65
2021/10/05 05:41:23;;;;;;;9.80;8.80;;;;;;;12.44;80.14;98449.56;2618724;54;20045;-65
2021/10/05 05:43:52;;;;;;;10.48;8.82;;;;;;;12.46;79.98;98450.19;2618251;54;20034;-65
2021/10/05 05:46:22;;;;;;;10.85;9.75;;;;;;;12.49;79.88;98435.66;2618424;54;20027;-65
2021/10/05 05:48:51;;;;;;;13.25;9.95;;;;;;;12.44;80.09;98436.31;2618448;54;20023;-65
2021/10/05 05:51:21;;;;;;;12.13;9.77;;;;;;;12.43;80.25;98426.75;2618483;54;20035;-65
2021/10/05 05:53:53;;;;;;;12.90;10.02;;;;;;;12.47;79.96;98422.63;2618409;54;20569;-65
2021/10/05 05:56:23;;;;;;;9.73;8.55;;;;;;;12.52;79.80;98422.78;2618905;39;20412;-65
2021/10/05 05:58:55;;;;;;;12.30;11.00;;;;;;;12.55;79.81;98422.38;2618402;54;20058;-65
2021/10/05 06:01:25;;;;;;;10.65;8.52;;;;;;;12.54;79.67;98428.72;2618390;54;20057;-65
2021/10/05 06:03:54;;;;;;;9.77;8.75;;;;;;;12.51;79.91;98423.81;2618327;54;20086;-65
2021/10/05 06:06:24;;;;;;;9.60;8.65;;;;;;;12.51;80.20;98426.47;2618530;54;20079;-65
2021/10/05 06:08:57;;;;;;;10.50;9.07;;;;;;;12.57;80.07;98432.75;2618458;54;20022;-65
2021/10/05 06:11:29;;;;;;;9.70;8.70;;;;;;;12.59;80.21;98426.22;2618080;54;20026;-65
2021/10/05 06:13:59;;;;;;;9.73;8.63;;;;;;;12.60;79.74;98424.38;2618447;54;20145;-65
2021/10/05 06:16:29;;;;;;;8.32;7.40;;;;;;;12.54;79.63;98419.94;2618542;54;20019;-65
2021/10/05 06:18:58;;;;;;;11.52;7.97;;;;;;;12.54;79.84;98420.75;2618851;39;20421;-65
2021/10/05 06:21:28;;;;;;;9.05;8.15;;;;;;;12.60;80.01;98419.06;2618332;54;20041;-65
2021/10/05 06:24:00;;;;;;;8.27;7.43;;;;;;;12.61;79.66;98418.88;2618337;54;20580;-65
2021/10/05 06:26:30;;;;;;;10.13;7.63;;;;;;;12.70;80.08;98416.78;2618529;54;20026;-65
2021/10/05 06:28:59;;;;;;;9.35;8.35;;;;;;;12.78;79.67;98418.34;2618377;54;20037;-65
2021/10/05 06:31:29;;;;;;;9.55;8.35;;;;;;;12.86;79.33;98418.09;2618314;54;20019;-65
2021/10/05 06:33:59;;;;;;;9.55;8.30;;;;;;;12.94;79.05;98412.50;2618295;54;20069;-65
2021/10/05 06:36:28;;;;;;;12.45;9.05;;;;;;;12.97;79.17;98419.19;2618596;39;20453;-65
2021/10/05 06:39:01;;;;;;;8.23;7.18;;;;;;;12.93;78.55;98410.84;2618467;54;20557;-65
2021/10/05 06:41:30;;;;;;;9.30;7.65;;;;;;;12.98;78.94;98416.34;2618724;39;20453;-65
2021/10/05 06:44:00;;;;;;;9.20;7.40;;;;;;;13.02;79.07;98404.28;2617506;54;20057;-65
2021/10/05 06:46:30;;;;;;;8.25;6.97;;;;;;;13.07;78.50;98406.28;2618765;39;20677;-65
2021/10/05 06:48:59;;;;;;;15.13;13.50;;;;;;;13.12;78.47;98406.41;2618608;54;20018;-65
2021/10/05 06:51:29;;;;;;;9.98;8.98;;;;;;;13.04;78.52;98404.03;2618815;54;20033;-65
2021/10/05 06:54:01;;;;;;;11.10;9.15;;;;;;;12.95;78.69;98397.41;2618685;39;20454;-65
2021/10/05 06:56:31;;;;;;;9.13;8.02;;;;;;;12.98;79.39;98397.78;2618306;54;20038;-65
2021/10/05 06:59:01;;;;;;;9.60;7.68;;;;;;;13.09;78.83;98396.22;2618250;54;20038;-65
2021/10/05 07:01:30;;;;;;;9.05;7.55;;;;;;;13.12;78.32;98390.50;2618698;39;20490;-64
2021/10/05 07:04:01;;;;;;;9.88;8.25;;;;;;;13.16;78.23;98394.34;2618297;54;20030;-64
2021/10/05 07:06:30;;;;;;;9.57;8.02;;;;;;;13.23;78.22;98391.66;2618351;54;20037;-65
2021/10/05 07:09:03;;;;;;;7.72;6.93;;;;;;;13.27;78.17;98395.50;2618223;54;20023;-65
2021/10/05 07:11:33;;;;;;;9.73;8.43;;;;;;;13.29;77.47;98391.56;2618278;54;20022;-64
2021/10/05 07:14:03;;;;;;;8.55;7.75;;;;;;;13.23;77.58;98389.00;2618468;54;20038;-65
2021/10/05 07:16:34;;;;;;;7.38;6.57;;;;;;;13.20;77.53;98384.09;2618457;54;20074;-65
2021/10/05 07:19:03;;;;;;;7.22;6.28;;;;;;;13.22;77.93;98385.47;2617803;54;20045;-64
2021/10/05 07:21:33;;;;;;;6.70;6.10;;;;;;;13.29;77.67;98380.94;2618170;54;20034;-64
2021/10/05 07:24:06;;;;;;;6.57;5.97;;;;;;;13.30;77.33;98373.78;2617822;54;20019;-64
2021/10/05 07:26:36;;;;;;;10.48;9.45;;;;;;;13.29;77.39;98365.03;2618363;54;20029;-64
2021/10/05 07:29:05;;;;;;;8.27;7.47;;;;;;;13.27;76.96;98358.34;2618236;54;20027;-64
2021/10/05 07:31:35;;;;;;;10.20;8.63;;;;;;;13.29;77.37;98359.72;2618440;54;20023;-65
2021/10/05 07:34:09;;;;;;;5.93;5.32;;;;;;;13.31;77.46;98362.16;2618506;54;20088;-65
2021/10/05 07:36:39;;;;;;;7.25;5.57;;;;;;;13.33;77.11;98357.44;2618342;54;20049;-64
2021/10/05 07:39:11;;;;;;;5.13;4.72;;;;;;;13.42;76.90;98361.41;2618590;54;20039;-64
2021/10/05 07:41:43;;;;;;;4.97;4.57;;;;;;;13.53;76.91;98354.56;2618199;54;20026;-64
2021/10/05 07:44:13;;;;;;;5.03;4.53;;;;;;;13.56;76.14;98362.91;2617821;54;20534;-64
2021/10/05 07:46:43;;;;;;;5.45;4.85;;;;;;;13.65;76.67;98362.59;2618252;54;20034;-65
2021/10/05 07:49:12;;;;;;;5.85;4.75;;;;;;;13.74;76.29;98354.09;2618520;54;20046;-64
2021/10/05 07:51:42;;;;;;;6.75;5.20;;;;;;;13.84;76.23;98343.75;2618345;54;20045;-64
2021/10/05 07:54:15;;;;;;;5.05;4.65;;;;;;;13.91;75.92;98340.19;2618148;54;20038;-65
2021/10/05 07:56:44;;;;;;;6.13;5.20;;;;;;;13.96;75.71;98340.31;2618501;54;20046;-64
2021/10/05 07:59:14;;;;;;;5.25;4.63;;;;;;;13.97;74.87;98340.09;2618203;39;20423;-65
2021/10/05 08:01:49;;;;;;;9.07;5.60;;;;;;;13.95;75.07;98344.00;2618411;54;20034;-65
2021/10/05 08:04:20;;;;;;;6.55;5.43;;;;;;;14.02;75.09;98342.88;2617614;47;20034;-65
2021/10/05 08:06:49;;;;;;;4.75;4.25;;;;;;;14.15;75.58;98341.09;2618439;54;20622;-64
2021/10/05 08:09:22;;;;;;;5.70;5.10;;;;;;;14.25;75.20;98352.00;2617800;54;20034;-65
2021/10/05 08:11:51;;;;;;;4.35;3.63;;;;;;;14.26;74.90;98342.97;2618397;54;20030;-64
2021/10/05 08:14:21;;;;;;;4.75;4.00;;;;;;;14.33;74.74;98349.00;2618259;54;20042;-64
2021/10/05 08:16:50;;;;;;;3.47;3.17;;;;;;;14.44;74.84;98352.72;2617647;54;20042;-65
2021/10/05 08:19:21;;;;;;;4.35;2.88;;;;;;;14.41;74.29;98356.66;2618707;39;20429;-65
2021/10/05 08:21:50;;;;;;;3.70;2.92;;;;;;;14.34;73.69;98355.94;2617493;54;20030;-65
2021/10/05 08:24:23;;;;;;;3.28;2.97;;;;;;;14.32;74.40;98361.47;2620161;54;20549;-65
2021/10/05 08:26:52;;;;;;;3.45;3.15;;;;;;;14.34;74.08;98364.72;2623642;54;20038;-65
2021/10/05 08:29:22;;;;;;;3.28;2.90;;;;;;;14.37;73.92;98364.28;2619841;54;20549;-65
2021/10/05 08:31:53;;;;;;;3.78;3.47;;;;;;;14.43;74.03;98354.56;2617538;47;20023;-64
2021/10/05 08:34:23;;;;;;;3.58;3.28;;;;;;;14.44;74.22;98350.84;2617511;54;20026;-64
2021/10/05 08:36:52;;;;;;;2.72;2.53;;;;;;;14.44;73.53;98350.06;2620332;54;20049;-65
2021/10/05 08:39:25;;;;;;;2.60;2.40;;;;;;;14.52;73.19;98341.78;2618958;54;20026;-64
2021/10/05 08:41:54;;;;;;;3.28;2.30;;;;;;;14.72;73.11;98334.28;2618187;47;20030;-64
2021/10/05 08:44:25;;;;;;;4.90;2.40;;;;;;;14.84;72.90;98327.09;2618947;54;20019;-65
2021/10/05 08:46:55;;;;;;;2.90;2.70;;;;;;;14.94;72.25;98323.88;2618924;54;20015;-65
2021/10/05 08:49:26;;;;;;;4.50;2.97;;;;;;;15.05;71.75;98323.03;2618748;54;20035;-65
2021/10/05 08:51:57;;;;;;;8.50;3.00;;;;;;;15.11;71.21;98321.31;2619606;39;20418;-65
2021/10/05 08:54:30;;;;;;;3.35;2.70;;;;;;;15.15;71.33;98314.50;2618229;47;20049;-65
2021/10/05 08:56:59;;;;;;;2.05;1.90;;;;;;;15.24;70.64;98313.06;2618442;47;20777;-64
2021/10/05 08:59:29;;;;;;;2.17;2.00;;;;;;;15.21;70.79;98313.53;2619164;54;20545;-64
2021/10/05 09:01:59;;;;;;;3.35;1.60;;;;;;;15.32;70.14;98306.59;2618564;47;20026;-65
2021/10/05 09:04:35;;;;;;;1.75;1.65;;;;;;;15.35;69.56;98296.28;2619203;39;20417;-64
2021/10/05 09:07:17;;;;;;;2.15;1.52;;;;;;;15.45;69.17;98306.31;2618173;54;20030;-64
2021/10/05 09:10:02;;;;;;;1.52;1.40;;;;;;;15.51;68.94;98312.53;2618873;54;20561;-64
2021/10/05 09:12:33;;;;;;;2.35;1.25;;;;;;;15.47;69.10;98309.56;2618895;54;20070;-64
2021/10/05 09:15:07;;;;;;;1.98;1.40;;;;;;;15.44;69.08;98306.56;2619007;54;20037;-64
2021/10/05 09:17:38;;;;;;;1.30;1.20;;;;;;;15.38;69.03;98297.63;2618963;54;20031;-65
2021/10/05 09:20:18;;;;;;;1.40;1.20;;;;;;;15.43;68.83;98305.75;2618972;54;20026;-65
2021/10/05 09:22:59;;;;;;;4.10;1.35;;;;;;;15.43;68.88;98308.41;2618588;54;20026;-65
2021/10/05 09:25:33;;;;;;;3.83;1.35;;;;;;;15.57;68.40;98307.09;2618756;54;20038;-66
2021/10/05 09:28:15;;;;;;;2.90;1.63;;;;;;;15.65;68.27;98307.78;2618219;51;20045;-65
2021/10/05 09:30:45;;;;;;;3.03;1.48;;;;;;;15.73;68.26;98302.91;2618235;54;20550;-66
2021/10/05 09:33:15;;;;;;;1.30;1.10;;;;;;;15.68;67.70;98294.81;2619231;39;20438;-66
2021/10/05 09:35:47;;;;;;;1.20;1.10;;;;;;;15.71;67.04;98304.16;2619286;39;20409;-66
2021/10/05 09:38:18;;;;;;;3.08;1.00;;;;;;;15.75;66.46;98290.13;2618443;54;20050;-66
2021/10/05 09:41:02;;;;;;;1.38;1.00;;;;;;;15.78;66.58;98300.31;2618975;54;20022;-65
2021/10/05 09:43:33;;;;;;;1.58;1.17;;;;;;;15.88;66.55;98299.72;2619407;39;20434;-66
2021/10/05 09:46:13;;;;;;;2.30;0.98;;;;;;;16.03;65.56;98307.16;2619121;54;20030;-65
2021/10/05 09:48:43;;;;;;;0.80;0.80;;;;;;;16.09;64.85;98298.22;2619245;54;20038;-65
2021/10/05 09:51:24;;;;;;;1.27;1.17;;;;;;;16.01;64.46;98310.06;2619270;39;20418;-65
2021/10/05 09:53:55;;;;;;;1.23;1.08;;;;;;;15.96;64.20;98306.50;2618552;54;20562;-65
2021/10/05 09:56:29;;;;;;;3.10;1.02;;;;;;;15.94;63.94;98305.94;2618231;54;20034;-65
2021/10/05 09:59:01;;;;;;;1.10;1.00;;;;;;;15.88;64.17;98299.72;2618850;54;20553;-65
2021/10/05 10:01:31;;;;;;;2.60;1.15;;;;;;;15.92;64.64;98303.53;2619112;39;20407;-65
2021/10/05 10:04:02;;;;;;;1.25;1.15;;;;;;;15.97;65.08;98298.28;2618655;54;20554;-65
2021/10/05 10:06:32;;;;;;;1.45;1.10;;;;;;;16.07;64.64;98293.09;2618773;54;20920;-66
2021/10/05 10:09:02;;;;;;;2.70;1.52;;;;;;;16.12;64.05;98291.56;2618796;54;20063;-65
2021/10/05 10:11:35;;;;;;;2.53;1.75;;;;;;;16.05;64.01;98287.22;2618318;54;20042;-65
2021/10/05 10:14:05;;;;;;;1.77;1.35;;;;;;;16.10;63.50;98283.81;2618748;54;20046;-65
2021/10/05 10:16:37;;;;;;;1.10;1.00;;;;;;;16.14;63.30;98284.16;2618768;54;20596;-65
2021/10/05 10:19:07;;;;;;;1.30;1.20;;;;;;;16.23;63.38;98285.38;2618737;54;20549;-65
2021/10/05 10:21:39;;;;;;;1.17;1.08;;;;;;;16.34;63.26;98282.63;2619095;39;20437;-65
2021/10/05 10:24:13;;;;;;;1.02;1.02;;;;;;;16.40;62.25;98280.84;2618446;54;20026;-65
2021/10/05 10:26:48;;;;;;;1.80;0.90;;;;;;;16.45;62.72;98283.63;2619272;39;20450;-67
2021/10/05 10:29:38;;;;;;;1.20;1.10;;;;;;;16.54;61.46;98282.16;2618125;47;20026;-65
2021/10/05 10:32:17;;;;;;;3.47;1.40;;;;;;;16.62;61.12;98272.13;2618564;54;20023;-66
2021/10/05 10:34:50;;;;;;;1.08;0.98;;;;;;;16.58;61.31;98277.94;2618362;54;20019;-65
2021/10/05 10:37:22;;;;;;;2.15;1.00;;;;;;;16.62;61.51;98264.91;2618634;54;20018;-65
2021/10/05 10:39:52;;;;;;;1.10;1.00;;;;;;;16.55;61.25;98267.75;2618683;54;20026;-65
2021/10/05 10:42:31;;;;;;;2.47;1.60;;;;;;;16.60;61.26;98267.81;2618688;54;20030;-65
2021/10/05 10:45:01;;;;;;;1.98;1.63;;;;;;;16.66;61.08;98270.59;2618433;54;20046;-65
2021/10/05 10:47:41;;;;;;;1.52;1.10;;;;;;;16.67;60.81;98267.66;2618650;54;20053;-65
2021/10/05 10:50:13;;;;;;;1.88;1.50;;;;;;;16.59;61.04;98263.53;2618329;54;20034;-65
2021/10/05 10:52:48;;;;;;;1.70;1.20;;;;;;;16.61;60.64;98255.28;2618396;54;20023;-65
2021/10/05 10:55:20;;;;;;;1.45;0.80;;;;;;;16.60;60.57;98259.81;2618922;39;20426;-65
2021/10/05 10:57:58;;;;;;;0.90;0.90;;;;;;;16.64;60.20;98251.31;2618884;39;20414;-65
2021/10/05 11:00:34;;;;;;;1.10;1.00;;;;;;;16.76;60.21;98244.84;2618509;54;20022;-65
2021/10/05 11:03:06;;;;;;;2.17;1.98;;;;;;;16.87;60.25;98250.34;2617902;47;20041;-65
2021/10/05 11:05:37;;;;;;;1.42;1.10;;;;;;;17.02;59.05;98243.34;2618772;54;20066;-65
2021/10/05 11:08:12;;;;;;;3.05;1.60;;;;;;;17.10;59.89;98239.41;2619085;39;20490;-65
2021/10/05 11:10:42;;;;;;;1.27;1.17;;;;;;;17.15;59.45;98238.69;2618323;54;20057;-65
2021/10/05 11:13:15;;;;;;;1.95;1.23;;;;;;;17.24;59.23;98231.84;2618673;54;20555;-65
2021/10/05 11:15:48;;;;;;;0.95;0.95;;;;;;;17.41;57.94;98232.56;2619469;54;20029;-66
2021/10/05 11:18:20;;;;;;;1.67;1.23;;;;;;;17.45;57.82;98223.00;2623757;54;20042;-65
2021/10/05 11:20:54;;;;;;;5.55;1.70;;;;;;;17.44;57.74;98217.91;2620931;54;20045;-65
2021/10/05 11:23:28;;;;;;;;;;;;;;;17.26;58.39;98211.03;2618383;39;20701;-65
2021/10/05 11:25:59;;;;;;;2.40;1.73;;;;;;;17.09;57.82;98213.78;2618261;54;19938;-65
2021/10/05 11:28:33;;;;;;;1.50;0.85;;;;;;;17.06;57.49;98217.75;2618395;54;20045;-65
2021/10/05 11:31:06;;;;;;;2.58;1.10;;;;;;;16.87;57.65;98210.31;2618439;54;20553;-66
2021/10/05 11:33:38;;;;;;;2.13;1.25;;;;;;;16.76;57.19;98206.69;2618587;54;20042;-67
2021/10/05 11:36:14;;;;;;;2.17;1.35;;;;;;;16.96;58.01;98198.13;2618888;54;20038;-65
2021/10/05 11:38:45;;;;;;;4.93;2.40;;;;;;;17.14;57.71;98197.81;2619147;39;20433;-65
2021/10/05 11:41:15;;;;;;;3.67;2.00;;;;;;;17.22;57.29;98199.22;2618739;39;20419;-65
2021/10/05 11:43:49;;;;;;;1.42;0.80;;;;;;;17.32;56.79;98186.81;2618291;47;20593;-65
2021/10/05 11:46:21;;;;;;;3.15;0.98;;;;;;;17.43;56.12;98178.88;2619078;47;20035;-66
2021/10/05 11:48:53;;;;;;;1.33;1.02;;;;;;;17.60;56.19;98170.78;2619585;54;20040;-66
2021/10/05 11:51:25;;;;;;;3.67;1.50;;;;;;;17.71;56.06;98164.44;2618805;47;20034;-63